Time;durP1;ratioP1;P1;durP2;ratioP2;P2;SDS_P1;SDS_P2;PMS_P1;PMS_P2;Temp;Humidity;BMP_temperature;BMP_pressure;BME280_temperature;BME280_humidity;BME280_pressure;Samples;Min_cycle;Max_cycle;Signal;HPM_P1;HPM_P2
2021/01/08 05:42:24;;;;;;;4.07;3.40;;;2.30;99.90;;;;;;12926927;22;20040;-95
2021/01/08 05:47:27;;;;;;;4.28;3.67;;;2.30;99.90;;;;;;12853526;23;20044;-95
2021/01/08 05:52:29;;;;;;;4.88;3.75;;;2.30;99.90;;;;;;12878692;23;20094;-95
2021/01/08 05:57:31;;;;;;;2.88;2.67;;;2.30;99.90;;;;;;12879215;23;20039;-96
2021/01/08 06:02:35;;;;;;;5.20;3.63;;;2.30;99.90;;;;;;12878768;23;20027;-95
2021/01/08 06:07:38;;;;;;;2.90;2.70;;;2.30;99.90;;;;;;12903143;23;20016;-95
2021/01/08 06:12:42;;;;;;;5.28;4.13;;;2.20;99.90;;;;;;12902660;23;20020;-93
2021/01/08 06:17:49;;;;;;;2.90;2.70;;;2.30;99.90;;;;;;12854849;23;20024;-96
2021/01/08 06:22:51;;;;;;;3.20;2.95;;;2.40;99.90;;;;;;12879890;23;20024;-95
2021/01/08 06:27:57;;;;;;;4.15;3.72;;;2.30;99.90;;;;;;12877469;23;20017;-95
2021/01/08 06:33:04;;;;;;;2.83;2.63;;;2.30;99.90;;;;;;12903287;23;20054;-94
2021/01/08 06:38:16;;;;;;;3.97;2.83;;;2.30;99.90;;;;;;12902301;23;20031;-94
2021/01/08 06:43:21;;;;;;;2.72;2.35;;;2.40;99.90;;;;;;12902204;23;20091;-94
2021/01/08 06:48:25;;;;;;;4.68;2.97;;;2.30;99.90;;;;;;12902364;23;20079;-95
2021/01/08 06:53:31;;;;;;;3.03;2.75;;;2.40;99.90;;;;;;12902242;23;20020;-95
2021/01/08 06:58:42;;;;;;;4.05;3.40;;;2.30;99.90;;;;;;12927403;23;20040;-94
2021/01/08 07:03:44;;;;;;;2.45;2.25;;;2.30;99.90;;;;;;12878098;23;20099;-94
2021/01/08 07:08:46;;;;;;;;;;;2.30;99.90;;;;;;12877547;23;20031;-95
2021/01/08 07:13:47;;;;;;;5.07;3.08;;;2.30;99.90;;;;;;12877526;23;20258;-95
2021/01/08 07:18:49;;;;;;;3.80;3.20;;;2.30;99.90;;;;;;12878562;23;20024;-95
2021/01/08 07:23:52;;;;;;;4.38;3.75;;;2.30;99.90;;;;;;12877559;23;20392;-95
2021/01/08 07:28:55;;;;;;;3.55;2.95;;;2.30;99.90;;;;;;12877763;23;20017;-95
2021/01/08 07:34:06;;;;;;;4.80;3.97;;;2.30;99.90;;;;;;12876182;23;20047;-94
2021/01/08 07:39:38;;;;;;;4.20;3.80;;;2.30;99.90;;;;;;12926682;23;20059;-95
2021/01/08 07:44:46;;;;;;;;;;;2.30;99.90;;;;;;12927303;23;20074;-95
2021/01/08 07:50:14;;;;;;;5.78;4.00;;;2.30;99.90;;;;;;12901430;23;19916;-95
2021/01/08 07:55:39;;;;;;;4.82;3.35;;;2.40;99.90;;;;;;12901554;23;20046;-95
2021/01/08 08:00:43;;;;;;;4.60;3.58;;;2.40;99.90;;;;;;12903869;23;20024;-95
2021/01/08 08:05:45;;;;;;;4.43;3.58;;;2.40;99.90;;;;;;12900762;23;20475;-95
2021/01/08 08:10:47;;;;;;;4.82;3.50;;;2.40;99.90;;;;;;12877224;23;20020;-95
2021/01/08 08:15:49;;;;;;;6.15;4.65;;;2.40;99.90;;;;;;12900709;23;20031;-95
2021/01/08 08:21:09;;;;;;;4.88;4.07;;;2.40;99.90;;;;;;12875909;23;20024;-95
2021/01/08 08:26:11;;;;;;;5.40;3.83;;;2.50;99.90;;;;;;12900890;23;20376;-94
2021/01/08 08:31:14;;;;;;;4.40;3.83;;;2.50;99.90;;;;;;12876677;23;20099;-95
2021/01/08 08:36:25;;;;;;;7.25;4.95;;;2.50;99.90;;;;;;12855333;23;20024;-94
2021/01/08 08:41:31;;;;;;;6.25;4.93;;;2.60;99.90;;;;;;12901140;23;20058;-95
2021/01/08 08:46:50;;;;;;;6.72;5.30;;;2.60;99.90;;;;;;12878519;23;20077;-95
2021/01/08 08:51:53;;;;;;;8.20;6.10;;;2.70;99.90;;;;;;12853286;23;20016;-95
2021/01/08 08:56:57;;;;;;;9.07;6.22;;;2.70;99.90;;;;;;12903336;23;20024;-95
2021/01/08 09:01:59;;;;;;;6.50;5.25;;;2.70;99.90;;;;;;12876181;23;20042;-95
2021/01/08 09:07:07;;;;;;;9.43;5.68;;;2.80;99.90;;;;;;12875354;23;20020;-95
2021/01/08 09:12:25;;;;;;;9.73;5.70;;;2.80;99.90;;;;;;12901212;23;20043;-95
2021/01/08 09:17:34;;;;;;;11.98;5.65;;;2.90;99.90;;;;;;12930358;23;20095;-95
2021/01/08 09:22:56;;;;;;;8.75;5.70;;;2.90;99.90;;;;;;12929938;23;20020;-95
2021/01/08 09:27:57;;;;;;;11.75;5.88;;;3.00;99.90;;;;;;12879224;23;20023;-95
2021/01/08 09:32:59;;;;;;;8.95;6.07;;;3.00;99.90;;;;;;12904033;23;20020;-95
2021/01/08 09:38:02;;;;;;;16.50;6.85;;;3.10;99.90;;;;;;12879012;23;20092;-95
2021/01/08 09:43:04;;;;;;;11.10;5.55;;;3.20;99.90;;;;;;12879052;23;20373;-95
2021/01/08 09:48:21;;;;;;;6.28;5.05;;;3.10;99.90;;;;;;12903472;23;20453;-95
2021/01/08 09:53:22;;;;;;;6.95;5.13;;;3.20;99.90;;;;;;12878833;23;20047;-94
2021/01/08 09:58:24;;;;;;;7.63;5.28;;;3.10;99.90;;;;;;12879693;23;20067;-95
2021/01/08 10:03:25;;;;;;;8.50;4.45;;;3.20;99.90;;;;;;12878956;23;20031;-95
2021/01/08 10:08:27;;;;;;;7.20;4.40;;;3.20;99.90;;;;;;12855065;23;20040;-94
2021/01/08 10:13:28;;;;;;;6.90;4.47;;;3.20;99.90;;;;;;12854787;23;20020;-95
2021/01/08 10:18:36;;;;;;;6.47;4.00;;;3.20;99.90;;;;;;12878470;23;20032;-95
2021/01/08 10:23:43;;;;;;;4.63;3.80;;;3.10;99.90;;;;;;12879738;23;20024;-95
2021/01/08 10:28:53;;;;;;;6.47;4.50;;;3.10;99.90;;;;;;12902584;23;20040;-95
2021/01/08 10:33:59;;;;;;;3.08;2.78;;;3.10;99.90;;;;;;12903372;23;20048;-95
2021/01/08 10:39:01;;;;;;;3.45;3.15;;;3.10;99.90;;;;;;12902954;23;20016;-95
2021/01/08 10:44:02;;;;;;;2.88;2.58;;;3.10;99.90;;;;;;12877918;23;20467;-95
2021/01/08 10:49:05;;;;;;;;;;;3.20;99.90;;;;;;12878606;23;20341;-95
2021/01/08 10:54:06;;;;;;;3.00;2.70;;;3.30;99.90;;;;;;12878376;23;19915;-94
2021/01/08 10:59:08;;;;;;;2.33;2.03;;;3.50;99.90;;;;;;12853869;23;20031;-95
2021/01/08 11:04:11;;;;;;;2.20;2.00;;;3.40;99.90;;;;;;12903423;23;20028;-95
2021/01/08 11:09:13;;;;;;;2.28;2.08;;;3.40;99.90;;;;;;12902415;23;20027;-94
2021/01/08 11:14:15;;;;;;;2.00;1.60;;;3.70;99.90;;;;;;12877091;23;20346;-95
2021/01/08 11:19:16;;;;;;;2.90;2.70;;;3.60;99.90;;;;;;12877398;23;20027;-94
2021/01/08 11:24:18;;;;;;;2.65;2.17;;;3.70;99.90;;;;;;12877617;23;20020;-94
2021/01/08 11:29:20;;;;;;;2.60;2.40;;;3.70;99.90;;;;;;12877258;23;20078;-95
2021/01/08 11:34:21;;;;;;;1.70;1.60;;;3.60;99.90;;;;;;12877141;23;20095;-95
2021/01/08 11:39:23;;;;;;;2.65;2.38;;;3.70;99.90;;;;;;12876026;23;20346;-95
2021/01/08 11:44:25;;;;;;;2.15;1.95;;;3.70;99.90;;;;;;12878833;23;20023;-95
2021/01/08 13:05:16;;;;;;;3.23;2.93;;;3.60;99.90;;;;;;13082566;22;1734664;-93
2021/01/08 13:10:18;;;;;;;4.30;2.92;;;3.70;99.90;;;;;;12979733;22;20015;-95
2021/01/08 13:15:19;;;;;;;;;;;3.70;99.90;;;;;;12956227;22;20057;-95
2021/01/08 13:20:21;;;;;;;3.35;3.05;;;3.60;99.90;;;;;;12980458;22;19919;-95
2021/01/08 13:25:24;;;;;;;3.40;3.10;;;3.70;99.90;;;;;;12955356;22;20019;-94
2021/01/08 13:30:26;;;;;;;2.95;2.70;;;3.80;99.90;;;;;;12980605;22;20023;-95
2021/01/08 13:35:29;;;;;;;3.15;2.85;;;3.90;99.90;;;;;;13030083;22;20019;-94
2021/01/08 13:40:31;;;;;;;3.40;3.10;;;3.60;99.90;;;;;;12956208;22;20023;-95
2021/01/08 13:45:33;;;;;;;2.03;1.88;;;3.60;99.90;;;;;;12981045;22;20015;-94
2021/01/08 13:50:35;;;;;;;3.38;2.55;;;3.50;99.90;;;;;;12978730;22;20068;-94
2021/01/08 13:55:37;;;;;;;3.08;2.60;;;3.40;99.90;;;;;;12979917;22;20019;-94
2021/01/08 14:00:38;;;;;;;2.70;2.22;;;3.30;99.90;;;;;;13003906;22;20054;-95
2021/01/08 14:05:40;;;;;;;3.55;3.25;;;3.20;99.90;;;;;;12953475;22;20039;-95
2021/01/08 14:10:41;;;;;;;4.18;3.78;;;3.20;99.90;;;;;;13003348;22;20019;-95
2021/01/08 14:15:43;;;;;;;5.03;3.92;;;3.10;99.90;;;;;;12955728;22;20333;-96
2021/01/08 14:20:46;;;;;;;;;;;3.10;99.90;;;;;;12956159;22;20331;-95
2021/01/08 14:25:50;;;;;;;3.33;3.03;;;3.00;99.90;;;;;;13003278;22;19993;-95
2021/01/08 14:30:52;;;;;;;2.78;2.55;;;2.90;99.90;;;;;;12954037;22;20035;-95
2021/01/08 14:35:54;;;;;;;3.53;3.03;;;2.80;99.90;;;;;;12953921;22;20050;-95
2021/01/08 14:40:59;;;;;;;5.93;3.28;;;2.80;99.90;;;;;;13003108;22;20027;-95
2021/01/08 14:46:00;;;;;;;5.63;4.65;;;2.70;99.90;;;;;;13029648;22;20116;-95
2021/01/08 14:51:02;;;;;;;10.32;8.13;;;2.60;99.90;;;;;;12978226;22;20019;-94
2021/01/08 14:56:10;;;;;;;7.97;6.10;;;2.40;99.90;;;;;;13003348;22;20058;-95
2021/01/08 15:01:21;;;;;;;5.88;3.75;;;2.40;99.90;;;;;;13003373;22;20030;-94
2021/01/08 15:06:22;;;;;;;6.68;5.03;;;2.30;99.90;;;;;;13003335;22;20021;-95
2021/01/08 15:11:38;;;;;;;7.68;4.65;;;2.10;99.90;;;;;;12977166;22;20019;-95
2021/01/08 15:16:40;;;;;;;3.33;3.03;;;1.90;99.90;;;;;;12982099;22;20026;-95
2021/01/08 15:21:42;;;;;;;4.65;4.15;;;1.90;99.90;;;;;;12952378;22;20023;-95
2021/01/08 15:26:44;;;;;;;4.65;3.92;;;1.80;99.90;;;;;;13027432;22;20015;-95
2021/01/08 15:31:45;;;;;;;5.00;3.92;;;1.60;99.90;;;;;;12979182;22;20042;-94
2021/01/08 15:36:47;;;;;;;;;;;1.40;99.90;;;;;;12978453;22;20098;-94
2021/01/08 15:42:02;;;;;;;3.97;3.47;;;1.50;99.90;;;;;;13002282;22;19914;-93
2021/01/08 15:47:04;;;;;;;5.93;3.72;;;1.70;99.90;;;;;;13002613;22;20113;-94
2021/01/08 15:52:06;;;;;;;5.35;4.40;;;1.80;99.90;;;;;;12954019;22;20031;-94
2021/01/08 15:57:08;;;;;;;3.80;3.40;;;1.70;99.90;;;;;;12976902;22;20023;-94
2021/01/08 16:02:10;;;;;;;4.30;3.90;;;1.50;99.90;;;;;;12953151;22;20317;-93
2021/01/08 16:07:11;;;;;;;;;;;1.20;99.90;;;;;;12952391;22;20073;-93
2021/01/08 16:12:13;;;;;;;6.15;3.72;;;1.10;99.90;;;;;;12976618;22;19922;-94
2021/01/08 16:17:14;;;;;;;4.20;3.80;;;1.00;99.90;;;;;;12952434;22;20049;-93
2021/01/08 16:22:16;;;;;;;;;;;0.90;99.90;;;;;;12977636;22;20030;-94
2021/01/08 16:27:18;;;;;;;4.00;3.45;;;0.80;99.90;;;;;;12977030;22;19915;-94
2021/01/08 16:32:20;;;;;;;;;;;0.70;99.90;;;;;;12977782;22;20094;-94
2021/01/08 16:37:25;;;;;;;;;;;0.70;99.90;;;;;;13006525;22;19914;-95
2021/01/08 16:42:26;;;;;;;4.53;4.00;;;0.70;99.90;;;;;;13006908;22;19943;-95
2021/01/08 16:47:29;;;;;;;6.47;3.90;;;0.50;99.90;;;;;;12957088;22;20049;-94
2021/01/08 16:52:31;;;;;;;5.25;3.80;;;0.50;99.90;;;;;;12958562;22;20015;-95
2021/01/08 16:57:36;;;;;;;6.55;5.07;;;0.50;99.90;;;;;;13007727;22;20023;-95
2021/01/08 17:02:41;;;;;;;6.43;5.28;;;0.50;99.90;;;;;;12983490;22;20057;-94
2021/01/08 17:07:43;;;;;;;11.13;7.22;;;0.50;99.90;;;;;;13006681;22;20019;-96
2021/01/08 17:12:46;;;;;;;8.98;6.45;;;0.50;99.90;;;;;;13005840;22;20517;-95
2021/01/08 17:17:48;;;;;;;8.18;6.07;;;0.50;99.90;;;;;;13030643;22;20023;-95
2021/01/08 17:22:50;;;;;;;7.15;5.38;;;0.40;99.90;;;;;;13004575;22;20049;-96
2021/01/08 17:27:51;;;;;;;;;;;0.30;99.90;;;;;;12982216;22;20073;-95
2021/01/08 17:32:53;;;;;;;7.60;4.97;;;0.20;99.90;;;;;;12979617;22;19930;-96
2021/01/08 17:37:57;;;;;;;7.78;5.55;;;0.30;99.90;;;;;;13006582;22;20026;-96
2021/01/08 17:43:04;;;;;;;9.90;6.43;;;0.20;99.90;;;;;;12981126;22;20102;-96
2021/01/08 17:48:07;;;;;;;10.23;7.40;;;0.00;99.90;;;;;;13032890;22;20022;-96
2021/01/08 17:53:08;;;;;;;14.25;10.00;;;0.00;99.90;;;;;;13006924;22;20023;-96
2021/01/08 17:58:49;;;;;;;12.25;7.97;;;0.00;99.90;;;;;;12980434;22;20019;-96
2021/01/08 18:03:54;;;;;;;10.88;7.57;;;0.00;99.90;;;;;;13006903;22;20023;-96
2021/01/08 18:09:01;;;;;;;10.68;7.30;;;-0.10;99.90;;;;;;13033452;22;20322;-96
2021/01/08 18:14:06;;;;;;;11.05;7.85;;;-0.10;99.90;;;;;;13007713;22;20015;-96
2021/01/08 18:25:55;;;;;;;10.57;6.60;;;-0.20;99.90;;;;;;13053988;22;20069;-96
2021/01/08 18:31:51;;;;;;;10.55;7.70;;;-0.20;99.90;;;;;;13010993;22;20039;-96
2021/01/08 18:37:13;;;;;;;9.00;7.20;;;-0.20;99.90;;;;;;13015928;22;20061;-96
2021/01/08 18:42:15;;;;;;;11.63;8.52;;;0.00;99.90;;;;;;13007194;22;20023;-96
2021/01/08 18:47:17;;;;;;;10.05;7.60;;;-0.20;99.90;;;;;;13006688;22;20023;-96
2021/01/08 18:52:18;;;;;;;6.75;5.93;;;-0.20;99.90;;;;;;13005449;22;20405;-96
2021/01/08 18:57:23;;;;;;;8.65;7.13;;;-0.20;99.90;;;;;;13004330;22;20027;-96
2021/01/08 19:02:29;;;;;;;11.60;8.45;;;-0.10;99.90;;;;;;13009212;22;20034;-96
2021/01/08 19:07:32;;;;;;;8.88;6.68;;;-0.30;99.90;;;;;;12914210;22;20020;-96
2021/01/08 19:12:36;;;;;;;8.60;6.32;;;-0.20;99.90;;;;;;12965537;22;20020;-96
2021/01/08 19:17:41;;;;;;;11.85;8.85;;;-0.30;99.90;;;;;;12915503;22;20471;-96
2021/01/08 19:22:43;;;;;;;10.43;6.95;;;-0.30;99.90;;;;;;12915951;22;20023;-96
2021/01/08 19:27:45;;;;;;;14.40;8.85;;;-0.30;99.90;;;;;;12893631;22;20043;-95
2021/01/08 19:32:47;;;;;;;;;;;-0.10;99.90;;;;;;12946721;22;20024;-95
2021/01/08 19:37:49;;;;;;;16.63;10.90;;;0.00;99.90;;;;;;12940200;22;19969;-95
2021/01/08 19:42:50;;;;;;;;;;;0.00;99.90;;;;;;12939012;22;20019;-96
2021/01/08 19:47:53;;;;;;;11.48;8.88;;;-0.10;99.90;;;;;;12939228;22;19990;-95
2021/01/08 19:52:55;;;;;;;;;;;0.00;99.90;;;;;;12914143;22;20111;-96
2021/01/08 19:57:57;;;;;;;9.15;6.38;;;-0.10;99.90;;;;;;12963751;22;20359;-95
2021/01/08 20:02:59;;;;;;;11.90;7.20;;;-0.10;99.90;;;;;;12938361;22;20019;-96
2021/01/08 20:08:01;;;;;;;7.93;5.85;;;0.00;99.90;;;;;;12961841;22;20024;-96
2021/01/08 20:13:06;;;;;;;7.78;5.90;;;0.00;99.90;;;;;;12981863;22;20020;-95
2021/01/08 20:18:08;;;;;;;9.93;6.95;;;0.10;99.90;;;;;;12981292;22;20444;-96
2021/01/08 20:23:24;;;;;;;8.98;5.78;;;0.10;99.90;;;;;;12968294;22;20459;-96
2021/01/08 20:28:26;;;;;;;;;;;0.30;99.90;;;;;;13008014;22;20031;-96
2021/01/08 20:33:34;;;;;;;9.60;5.80;;;0.40;99.90;;;;;;13032292;22;19915;-96
2021/01/08 20:38:38;;;;;;;9.27;6.15;;;0.40;99.90;;;;;;13008063;22;20073;-95
2021/01/08 20:43:42;;;;;;;7.47;5.95;;;0.40;99.90;;;;;;13008106;22;20433;-96
2021/01/08 20:48:44;;;;;;;;;;;0.60;99.90;;;;;;13032134;22;20015;-95
2021/01/08 20:53:49;;;;;;;10.73;6.53;;;0.60;99.90;;;;;;13005402;22;19914;-96
2021/01/08 20:58:50;;;;;;;6.65;5.60;;;0.60;99.90;;;;;;12982341;22;20094;-96
2021/01/08 21:03:52;;;;;;;;;;;0.70;99.90;;;;;;12956141;22;20490;-96
2021/01/08 21:08:54;;;;;;;12.40;7.38;;;0.70;99.90;;;;;;12966453;22;19918;-96
2021/01/08 21:13:55;;;;;;;;;;;0.80;99.90;;;;;;12943433;22;20019;-96
2021/01/08 21:18:57;;;;;;;13.55;9.05;;;0.80;99.90;;;;;;12940877;22;19915;-96
2021/01/08 21:23:58;;;;;;;12.27;8.15;;;0.80;99.90;;;;;;12941182;22;20027;-96
2021/01/08 21:29:00;;;;;;;14.55;9.73;;;0.80;99.90;;;;;;12941232;22;20460;-95
2021/01/08 21:34:05;;;;;;;13.45;7.80;;;0.90;99.90;;;;;;12967640;22;20089;-95
2021/01/08 21:39:09;;;;;;;18.48;10.25;;;0.90;99.90;;;;;;12942866;22;20031;-96
2021/01/08 21:44:12;;;;;;;13.50;8.57;;;0.90;99.90;;;;;;12941941;22;20099;-96
2021/01/08 21:49:14;;;;;;;14.27;8.93;;;0.90;99.90;;;;;;12915814;22;20015;-96
2021/01/08 21:54:21;;;;;;;;;;;1.00;99.90;;;;;;12966318;22;20031;-95
2021/01/08 21:59:23;;;;;;;14.90;9.45;;;1.00;99.90;;;;;;12966504;22;19915;-96
2021/01/08 22:04:25;;;;;;;19.48;9.65;;;1.00;99.90;;;;;;12966529;22;20027;-96
2021/01/08 22:09:36;;;;;;;20.92;11.93;;;1.10;99.90;;;;;;13033238;22;20019;-95
2021/01/08 22:14:38;;;;;;;16.52;9.05;;;1.00;99.90;;;;;;12980912;22;20026;-95
2021/01/08 22:19:40;;;;;;;16.23;10.43;;;1.10;99.90;;;;;;13004538;22;20023;-96
2021/01/08 22:24:41;;;;;;;11.20;7.78;;;1.10;99.90;;;;;;13003854;22;20023;-95
2021/01/08 22:29:57;;;;;;;13.95;9.27;;;1.00;99.90;;;;;;12953114;22;20027;-94
2021/01/08 22:34:59;;;;;;;10.80;7.60;;;0.90;99.90;;;;;;13029777;22;20046;-95
2021/01/08 22:40:01;;;;;;;13.77;8.82;;;1.00;99.90;;;;;;12977953;22;20023;-95
2021/01/08 22:45:05;;;;;;;11.88;7.72;;;1.00;99.90;;;;;;12981772;22;20425;-95
2021/01/08 22:50:09;;;;;;;12.13;8.32;;;0.90;99.90;;;;;;12978336;22;20068;-94
2021/01/08 22:55:11;;;;;;;15.65;8.85;;;0.90;99.90;;;;;;13029169;22;20022;-95
2021/01/08 23:00:15;;;;;;;9.38;7.57;;;0.80;99.90;;;;;;12979112;22;20030;-95
2021/01/08 23:05:17;;;;;;;14.70;8.85;;;0.70;99.90;;;;;;13002854;22;20340;-95
2021/01/08 23:10:19;;;;;;;11.93;8.00;;;0.70;99.90;;;;;;12977501;22;20039;-95
2021/01/08 23:15:23;;;;;;;;;;;0.70;99.90;;;;;;12954000;22;20019;-94
2021/01/08 23:20:26;;;;;;;14.90;8.82;;;0.70;99.90;;;;;;13002784;22;19915;-94
2021/01/08 23:25:28;;;;;;;19.38;11.02;;;0.80;99.90;;;;;;12952720;22;20030;-93
2021/01/08 23:30:29;;;;;;;15.13;8.70;;;0.80;99.90;;;;;;12977035;22;20019;-94
2021/01/08 23:35:31;;;;;;;;;;;0.80;99.90;;;;;;12978076;22;20023;-94
2021/01/08 23:40:34;;;;;;;11.38;7.95;;;0.80;99.90;;;;;;12977304;22;19938;-94
2021/01/08 23:45:35;;;;;;;14.77;7.85;;;0.80;99.90;;;;;;12967237;22;20035;-90
2021/01/08 23:50:37;;;;;;;18.35;10.65;;;0.80;99.90;;;;;;12988449;22;20180;-90
2021/01/08 23:55:40;;;;;;;13.68;8.27;;;0.80;99.90;;;;;;12937939;22;20016;-90
